Relevés horaires Bierset (Belgique)


Relevés horaires à Bierset - Lundi 09 Juill. 2018
Heure UTC1 Température [°C] Vent [km/h] Hum. [%] Pres.4 [hPa] Visi. [Km] Nébu. [octa] Préc.5 [mm] Cond.
2m. Res. Ros. Dir.2 Vit. Moy. Raf.3
23:00 17.4 17.4 14.1 NNO 7.4 7.4 11.1 81 1021.3(0.0/3h) 25 7/8 -- --
22:00 18.3 18.3 14.2 NNO 5.6 7.4 11.1 77 1021.3(0.1/3h) 40 7/8 -- --
21:00 19.1 19.1 14.0 NNO 7.4 9.3 13.0 72 1021.6(0.4/3h) 50 7/8 -- --
20:00 20.0 20.0 13.6 N 5.6 7.4 11.1 67 1021.1(-0.4/3h) 45 7/8 -- --
19:00 21.1 21.1 13.2 NNO 5.6 9.3 13.0 61 1021(-0.7/3h) 40 7/8 -- --
18:00 22.2 22.2 12.4 N 7.4 9.3 13.0 54 1021(-0.9/3h) 30 7/8 0/12h
--
17:00 22.4 22.4 12.7 N 9.3 9.3 13.0 54 1021.3(-1.1/3h) 30 7/8 -- --
16:00 22.4 22.4 12.4 N 9.3 9.3 13.0 53 1021.7(-1.2/3h) 30 7/8 -- --
15:00 23.2 23.2 11.9 N 7.4 9.3 13.0 49 1021.8(-1.3/3h) 30 7/8 -- --
14:00 23.6 23.6 11.4 NNO 5.6 9.3 13.0 46 1022.4(-1.3/3h) 30 7/8 -- --
13:00 23.0 23.0 11.4 N 7.4 7.4 13.0 48 1022.8(-0.9/3h) 30 7/8 -- --
12:00 22.2 22.2 11.2 N 7.4 9.3 14.8 50 1023.2(-1.1/3h) 30 7/8 0/6h
--
11:00 21.0 21.0 10.8 N 5.6 7.4 13.0 52 1023.9(-0.7/3h) 20 6/8 -- --
10:00 21.0 21.0 11.4 NNE 5.6 7.4 11.1 54 1023.9(-0.4/3h) 20 5/8 -- --
09:00 19.6 19.6 11.5 NNO 5.6 7.4 11.1 59 1024.5(0.0/3h) 20 6/8 -- --
08:00 17.9 17.9 11.7 N 7.4 7.4 11.1 67 1024.8(0.3/3h) 30 3/8 -- --
07:00 16.3 16.3 12.6 NE 5.6 5.6 7.4 79 1024.7(0.3/3h) 16 1/8 -- --
06:00 14.4 14.4 12.1 N 5.6 5.6 7.4 86 1024.9(0.4/3h) 16 1/8 0/12h
--
05:00 13.1 13.1 11.4 NNO 3.7 3.7 5.6 89 1024.8(0.2/3h) 20 1/8 -- --
04:00 13.2 13.2 11.1 NNO 1.9 1.9 3.7 87 1024.6(-0.2/3h) 30 0/8 -- --
03:00 13.4 13.4 10.7 NO 1.9 5.6 5.6 84 1024.6(-0.4/3h) 30 0/8 -- --
02:00 14.0 14.0 10.6 N 3.7 5.6 5.6 80 1024.6(-0.2/3h) 30 0/8 -- --
01:00 15.1 15.1 10.3 N 3.7 3.7 5.6 73 1024.7(0.1/3h) 30 0/8 -- --
00:00 15.2 15.2 9.8 N 1.9 7.4 11.1 70 1024.8(0.3/3h) 30 0/8 0/6h
0/24h
--

1 Coordinated Universal Time. Actuellement il est 09:00 locale et 07:00 UTC.

2 Le vent souffle depuis la direction indiquée vers la direction oposée.

3 Les rafales max. sont disponible 40 min après l'heure du relevé.

4 Pour les stations d'altitude (plus de 600m) le géopotentiel du niveau le plus proche de la pression obligatoire est indiqué.

5 Les stations disposant d'un diffuseur peuvent indiquer "trace". Cela signifie que des précipitations ont touchés le sol mais que la quantité est inférieure à 0.1 mm.

Récapitulatif de la journée
Température [°C] Vent [km/h] Ensoleillement4 [h] Precipitations totale5 [mm] Pression [Hpa]
Min1 Max.2 Moy.3 Max. Min Max.
12.6 24.0 7.2 14.8 0 h 0 min 0 1021.0 1024.9

1 Température minimale relevée entre 18:00 UTC la veille et 18:00 UTC le jour donné.

2 Température maximale relevée entre 06:00 UTC le jour donné et 06:00 UTC le lendemain.

3 Vent moyen de la journée basé sur les relevés horaires.

4 Ensoleillement en heures relevé entre 06:00 UTC la veille et 06:00 UTC le jour donné.

5 Précipitations totales tombées entre 06:00 UTC la jour donné et 06:00 UTC le lendemain.

Graphiques horaires